Rising Sun, Maryland
Current Conditions -  °F | °C
As of 11:35 PM on Tuesday 21 Oct 2014 (Local Time) from KMQS Reporting Station
Moderate Rain Moderate Rain  
Wind Chill: 54°   Ceiling: 4800
Heat Index: 54°   Visibility: 4mi
Dew Point: 52°   Wind: 3mph
Humidity: 94%   Direction: 340°NNW
Pressure: 29.9"   Gusts: NA
Location:  39.7°N, 76.06°W
Report Text: KMQS 220335Z AUTO 34003KT 4SM RA FEW023 SCT040 OVC048 12/11 A2990 RMK AO2 P0005
Loading
Personal Weather Stations






























Interactive Weather Map
Tropical Storm Tracking
New forecast layout! Learn more

10-Day Weather Forecast

Advertisements
Track Severe Weather on mobile